sensor_id;sensor_type;location;lat;lon;timestamp;temperature;humidity
39601;DHT22;25297;44.758;11.310;2023-01-30T00:01:25;6.60;75.70
39601;DHT22;25297;44.758;11.310;2023-01-30T00:03:51;6.60;75.70
39601;DHT22;25297;44.758;11.310;2023-01-30T00:06:17;6.60;75.70
39601;DHT22;25297;44.758;11.310;2023-01-30T00:08:43;6.60;75.60
39601;DHT22;25297;44.758;11.310;2023-01-30T00:11:10;6.60;75.60
39601;DHT22;25297;44.758;11.310;2023-01-30T00:13:36;6.60;75.50
39601;DHT22;25297;44.758;11.310;2023-01-30T00:16:03;6.60;75.50
39601;DHT22;25297;44.758;11.310;2023-01-30T00:18:28;6.60;75.50
39601;DHT22;25297;44.758;11.310;2023-01-30T00:20:58;6.60;75.50
39601;DHT22;25297;44.758;11.310;2023-01-30T00:23:25;6.60;75.40
39601;DHT22;25297;44.758;11.310;2023-01-30T00:25:51;6.50;75.20
39601;DHT22;25297;44.758;11.310;2023-01-30T00:28:17;6.50;75.40
39601;DHT22;25297;44.758;11.310;2023-01-30T00:30:43;6.50;75.50
39601;DHT22;25297;44.758;11.310;2023-01-30T00:33:09;6.50;75.40
39601;DHT22;25297;44.758;11.310;2023-01-30T00:35:35;6.50;75.40
39601;DHT22;25297;44.758;11.310;2023-01-30T00:38:01;6.40;75.40
39601;DHT22;25297;44.758;11.310;2023-01-30T00:40:27;6.40;75.40
39601;DHT22;25297;44.758;11.310;2023-01-30T00:42:54;6.40;75.40
39601;DHT22;25297;44.758;11.310;2023-01-30T00:45:40;6.40;75.50
39601;DHT22;25297;44.758;11.310;2023-01-30T00:48:26;6.30;75.50
39601;DHT22;25297;44.758;11.310;2023-01-30T00:50:52;6.30;75.40
39601;DHT22;25297;44.758;11.310;2023-01-30T00:53:17;6.30;75.40
39601;DHT22;25297;44.758;11.310;2023-01-30T00:55:43;6.30;75.50
39601;DHT22;25297;44.758;11.310;2023-01-30T00:58:10;6.30;75.60
39601;DHT22;25297;44.758;11.310;2023-01-30T01:00:36;6.30;75.80
39601;DHT22;25297;44.758;11.310;2023-01-30T01:03:03;6.30;75.80
39601;DHT22;25297;44.758;11.310;2023-01-30T01:05:29;6.30;75.70
39601;DHT22;25297;44.758;11.310;2023-01-30T01:07:55;6.30;75.60
39601;DHT22;25297;44.758;11.310;2023-01-30T01:10:21;6.30;75.50
39601;DHT22;25297;44.758;11.310;2023-01-30T01:12:48;6.30;75.60
39601;DHT22;25297;44.758;11.310;2023-01-30T01:15:14;6.30;75.40
39601;DHT22;25297;44.758;11.310;2023-01-30T01:17:41;6.30;75.30
39601;DHT22;25297;44.758;11.310;2023-01-30T01:20:07;6.30;75.30
39601;DHT22;25297;44.758;11.310;2023-01-30T01:22:33;6.20;75.30
39601;DHT22;25297;44.758;11.310;2023-01-30T01:24:58;6.20;75.30
39601;DHT22;25297;44.758;11.310;2023-01-30T01:27:24;6.20;75.40
39601;DHT22;25297;44.758;11.310;2023-01-30T01:29:50;6.20;75.50
39601;DHT22;25297;44.758;11.310;2023-01-30T01:32:15;6.20;75.60
39601;DHT22;25297;44.758;11.310;2023-01-30T01:34:41;6.20;75.60
39601;DHT22;25297;44.758;11.310;2023-01-30T01:37:07;6.20;75.60
39601;DHT22;25297;44.758;11.310;2023-01-30T01:39:32;6.20;75.60
39601;DHT22;25297;44.758;11.310;2023-01-30T01:42:17;6.10;75.50
39601;DHT22;25297;44.758;11.310;2023-01-30T01:50:37;6.00;75.60
39601;DHT22;25297;44.758;11.310;2023-01-30T01:53:05;6.00;75.50
39601;DHT22;25297;44.758;11.310;2023-01-30T01:55:33;6.00;75.40
39601;DHT22;25297;44.758;11.310;2023-01-30T01:58:09;5.90;75.30
39601;DHT22;25297;44.758;11.310;2023-01-30T02:00:37;5.90;75.60
39601;DHT22;25297;44.758;11.310;2023-01-30T02:03:06;5.90;75.60
39601;DHT22;25297;44.758;11.310;2023-01-30T02:05:37;5.80;75.40
39601;DHT22;25297;44.758;11.310;2023-01-30T02:08:11;5.80;75.40
39601;DHT22;25297;44.758;11.310;2023-01-30T02:10:52;5.80;75.40
39601;DHT22;25297;44.758;11.310;2023-01-30T02:13:19;5.70;75.40
39601;DHT22;25297;44.758;11.310;2023-01-30T02:15:45;5.70;75.50
39601;DHT22;25297;44.758;11.310;2023-01-30T02:18:12;5.60;75.50
39601;DHT22;25297;44.758;11.310;2023-01-30T02:28:45;5.50;75.90
39601;DHT22;25297;44.758;11.310;2023-01-30T02:42:36;5.50;76.40
39601;DHT22;25297;44.758;11.310;2023-01-30T02:48:08;5.50;76.10
39601;DHT22;25297;44.758;11.310;2023-01-30T02:50:36;5.40;75.80
39601;DHT22;25297;44.758;11.310;2023-01-30T02:53:06;5.40;76.30
39601;DHT22;25297;44.758;11.310;2023-01-30T02:55:33;5.30;76.00
39601;DHT22;25297;44.758;11.310;2023-01-30T02:58:00;5.30;76.30
39601;DHT22;25297;44.758;11.310;2023-01-30T03:06:40;5.30;76.40
39601;DHT22;25297;44.758;11.310;2023-01-30T03:09:35;5.30;76.40
39601;DHT22;25297;44.758;11.310;2023-01-30T03:12:14;5.30;76.50
39601;DHT22;25297;44.758;11.310;2023-01-30T03:17:13;5.40;76.60
39601;DHT22;25297;44.758;11.310;2023-01-30T03:19:41;5.40;76.50
39601;DHT22;25297;44.758;11.310;2023-01-30T03:22:07;5.40;76.30
39601;DHT22;25297;44.758;11.310;2023-01-30T03:24:33;5.50;76.20
39601;DHT22;25297;44.758;11.310;2023-01-30T03:27:08;5.50;76.00
39601;DHT22;25297;44.758;11.310;2023-01-30T03:29:35;5.40;75.80
39601;DHT22;25297;44.758;11.310;2023-01-30T03:32:00;5.40;75.70
39601;DHT22;25297;44.758;11.310;2023-01-30T03:34:26;5.40;75.50
39601;DHT22;25297;44.758;11.310;2023-01-30T03:36:52;5.30;75.30
39601;DHT22;25297;44.758;11.310;2023-01-30T03:39:17;5.30;75.50
39601;DHT22;25297;44.758;11.310;2023-01-30T03:41:43;5.30;75.70
39601;DHT22;25297;44.758;11.310;2023-01-30T03:44:09;5.30;75.90
39601;DHT22;25297;44.758;11.310;2023-01-30T03:46:35;5.30;75.80
39601;DHT22;25297;44.758;11.310;2023-01-30T03:49:00;5.30;75.90
39601;DHT22;25297;44.758;11.310;2023-01-30T03:51:26;5.30;75.90
39601;DHT22;25297;44.758;11.310;2023-01-30T03:53:51;5.30;76.00
39601;DHT22;25297;44.758;11.310;2023-01-30T03:56:17;5.30;76.00
39601;DHT22;25297;44.758;11.310;2023-01-30T03:58:43;5.30;75.90
39601;DHT22;25297;44.758;11.310;2023-01-30T04:01:08;5.30;75.80
39601;DHT22;25297;44.758;11.310;2023-01-30T04:03:34;5.30;75.80
39601;DHT22;25297;44.758;11.310;2023-01-30T04:06:00;5.30;75.70
39601;DHT22;25297;44.758;11.310;2023-01-30T04:08:25;5.20;75.70
39601;DHT22;25297;44.758;11.310;2023-01-30T04:10:51;5.20;75.80
39601;DHT22;25297;44.758;11.310;2023-01-30T04:13:16;5.20;75.70
39601;DHT22;25297;44.758;11.310;2023-01-30T04:15:42;5.20;75.70
39601;DHT22;25297;44.758;11.310;2023-01-30T04:18:08;5.20;75.80
39601;DHT22;25297;44.758;11.310;2023-01-30T04:20:33;5.20;75.90
39601;DHT22;25297;44.758;11.310;2023-01-30T04:22:59;5.20;75.90
39601;DHT22;25297;44.758;11.310;2023-01-30T04:25:25;5.30;76.00
39601;DHT22;25297;44.758;11.310;2023-01-30T04:27:50;5.30;75.90
39601;DHT22;25297;44.758;11.310;2023-01-30T04:30:16;5.30;75.90
39601;DHT22;25297;44.758;11.310;2023-01-30T04:32:42;5.30;75.80
39601;DHT22;25297;44.758;11.310;2023-01-30T04:35:08;5.30;75.80
39601;DHT22;25297;44.758;11.310;2023-01-30T04:37:33;5.30;75.70
39601;DHT22;25297;44.758;11.310;2023-01-30T04:39:59;5.30;75.60
39601;DHT22;25297;44.758;11.310;2023-01-30T04:42:25;5.30;75.50
39601;DHT22;25297;44.758;11.310;2023-01-30T04:44:50;5.30;75.50
39601;DHT22;25297;44.758;11.310;2023-01-30T04:47:16;5.30;75.50
39601;DHT22;25297;44.758;11.310;2023-01-30T04:49:42;5.30;75.50
39601;DHT22;25297;44.758;11.310;2023-01-30T04:52:07;5.30;75.20
39601;DHT22;25297;44.758;11.310;2023-01-30T04:54:33;5.30;75.30
39601;DHT22;25297;44.758;11.310;2023-01-30T04:56:58;5.20;75.40
39601;DHT22;25297;44.758;11.310;2023-01-30T04:59:24;5.30;75.50
39601;DHT22;25297;44.758;11.310;2023-01-30T05:01:50;5.30;75.20
39601;DHT22;25297;44.758;11.310;2023-01-30T05:04:16;5.30;75.20
39601;DHT22;25297;44.758;11.310;2023-01-30T05:06:42;5.20;75.10
39601;DHT22;25297;44.758;11.310;2023-01-30T05:09:07;5.20;75.10
39601;DHT22;25297;44.758;11.310;2023-01-30T05:11:33;5.20;75.00
39601;DHT22;25297;44.758;11.310;2023-01-30T05:13:59;5.20;75.10
39601;DHT22;25297;44.758;11.310;2023-01-30T05:16:25;5.20;75.20
39601;DHT22;25297;44.758;11.310;2023-01-30T05:18:51;5.20;75.30
39601;DHT22;25297;44.758;11.310;2023-01-30T05:21:21;5.30;75.30
39601;DHT22;25297;44.758;11.310;2023-01-30T05:23:48;5.30;75.30
39601;DHT22;25297;44.758;11.310;2023-01-30T05:26:15;5.30;75.30
39601;DHT22;25297;44.758;11.310;2023-01-30T05:28:42;5.30;75.20
39601;DHT22;25297;44.758;11.310;2023-01-30T05:31:11;5.30;75.20
39601;DHT22;25297;44.758;11.310;2023-01-30T05:33:37;5.30;75.00
39601;DHT22;25297;44.758;11.310;2023-01-30T05:36:03;5.30;75.10
39601;DHT22;25297;44.758;11.310;2023-01-30T05:38:29;5.30;75.00
39601;DHT22;25297;44.758;11.310;2023-01-30T05:43:24;5.40;74.80
39601;DHT22;25297;44.758;11.310;2023-01-30T05:45:54;5.30;74.60
39601;DHT22;25297;44.758;11.310;2023-01-30T05:48:21;5.40;74.60
39601;DHT22;25297;44.758;11.310;2023-01-30T05:50:49;5.30;74.40
39601;DHT22;25297;44.758;11.310;2023-01-30T05:53:15;5.30;74.40
39601;DHT22;25297;44.758;11.310;2023-01-30T05:55:40;5.30;74.40
39601;DHT22;25297;44.758;11.310;2023-01-30T05:58:08;5.20;74.30
39601;DHT22;25297;44.758;11.310;2023-01-30T06:00:34;5.20;74.20
39601;DHT22;25297;44.758;11.310;2023-01-30T06:02:59;5.20;74.20
39601;DHT22;25297;44.758;11.310;2023-01-30T06:05:25;5.10;74.20
39601;DHT22;25297;44.758;11.310;2023-01-30T06:07:51;5.10;74.30
39601;DHT22;25297;44.758;11.310;2023-01-30T06:10:16;5.00;74.30
39601;DHT22;25297;44.758;11.310;2023-01-30T06:12:42;5.00;74.30
39601;DHT22;25297;44.758;11.310;2023-01-30T06:15:08;5.00;74.30
39601;DHT22;25297;44.758;11.310;2023-01-30T06:17:34;4.90;74.40
39601;DHT22;25297;44.758;11.310;2023-01-30T06:20:00;4.90;74.50
39601;DHT22;25297;44.758;11.310;2023-01-30T06:22:25;4.90;74.50
39601;DHT22;25297;44.758;11.310;2023-01-30T06:24:51;4.90;74.30
39601;DHT22;25297;44.758;11.310;2023-01-30T06:27:16;4.90;74.40
39601;DHT22;25297;44.758;11.310;2023-01-30T06:29:43;4.90;74.40
39601;DHT22;25297;44.758;11.310;2023-01-30T06:32:09;4.80;74.20
39601;DHT22;25297;44.758;11.310;2023-01-30T06:34:35;4.80;74.10
39601;DHT22;25297;44.758;11.310;2023-01-30T06:37:00;4.80;75.10
39601;DHT22;25297;44.758;11.310;2023-01-30T06:39:26;4.70;74.70
39601;DHT22;25297;44.758;11.310;2023-01-30T06:41:52;4.80;74.60
39601;DHT22;25297;44.758;11.310;2023-01-30T06:44:17;4.70;74.60
39601;DHT22;25297;44.758;11.310;2023-01-30T06:46:43;4.70;75.40
39601;DHT22;25297;44.758;11.310;2023-01-30T06:49:09;4.70;74.70
39601;DHT22;25297;44.758;11.310;2023-01-30T06:51:34;4.70;74.70
39601;DHT22;25297;44.758;11.310;2023-01-30T06:54:00;4.70;74.90
39601;DHT22;25297;44.758;11.310;2023-01-30T06:56:25;4.70;74.90
39601;DHT22;25297;44.758;11.310;2023-01-30T06:58:51;4.70;75.00
39601;DHT22;25297;44.758;11.310;2023-01-30T07:01:17;4.70;75.10
39601;DHT22;25297;44.758;11.310;2023-01-30T07:03:43;4.70;75.20
39601;DHT22;25297;44.758;11.310;2023-01-30T07:06:09;4.70;75.30
39601;DHT22;25297;44.758;11.310;2023-01-30T07:08:35;4.60;75.40
39601;DHT22;25297;44.758;11.310;2023-01-30T07:11:00;4.60;75.40
39601;DHT22;25297;44.758;11.310;2023-01-30T07:13:28;4.70;75.60
39601;DHT22;25297;44.758;11.310;2023-01-30T07:15:54;4.60;75.60
39601;DHT22;25297;44.758;11.310;2023-01-30T07:18:19;4.70;75.80
39601;DHT22;25297;44.758;11.310;2023-01-30T07:20:49;4.70;75.90
39601;DHT22;25297;44.758;11.310;2023-01-30T07:23:15;4.70;76.00
39601;DHT22;25297;44.758;11.310;2023-01-30T07:25:41;4.70;76.00
39601;DHT22;25297;44.758;11.310;2023-01-30T07:28:07;4.70;76.00
39601;DHT22;25297;44.758;11.310;2023-01-30T07:30:34;4.80;76.10
39601;DHT22;25297;44.758;11.310;2023-01-30T07:33:02;4.80;76.30
39601;DHT22;25297;44.758;11.310;2023-01-30T07:35:33;4.90;76.50
39601;DHT22;25297;44.758;11.310;2023-01-30T07:37:59;4.90;76.50
39601;DHT22;25297;44.758;11.310;2023-01-30T07:40:25;5.00;76.60
39601;DHT22;25297;44.758;11.310;2023-01-30T07:43:12;5.00;76.60
39601;DHT22;25297;44.758;11.310;2023-01-30T07:45:38;5.10;76.80
39601;DHT22;25297;44.758;11.310;2023-01-30T07:48:05;5.10;76.90
39601;DHT22;25297;44.758;11.310;2023-01-30T07:50:31;5.20;76.90
39601;DHT22;25297;44.758;11.310;2023-01-30T07:52:57;5.20;77.00
39601;DHT22;25297;44.758;11.310;2023-01-30T07:55:22;5.30;77.00
39601;DHT22;25297;44.758;11.310;2023-01-30T07:57:48;5.30;77.00
39601;DHT22;25297;44.758;11.310;2023-01-30T08:00:14;5.40;76.90
39601;DHT22;25297;44.758;11.310;2023-01-30T08:02:40;5.40;77.00
39601;DHT22;25297;44.758;11.310;2023-01-30T08:05:06;5.50;77.30
39601;DHT22;25297;44.758;11.310;2023-01-30T08:07:32;5.50;77.40
39601;DHT22;25297;44.758;11.310;2023-01-30T08:09:58;5.60;77.40
39601;DHT22;25297;44.758;11.310;2023-01-30T08:12:23;5.60;77.00
39601;DHT22;25297;44.758;11.310;2023-01-30T08:14:49;5.60;77.20
39601;DHT22;25297;44.758;11.310;2023-01-30T08:17:15;5.60;77.40
39601;DHT22;25297;44.758;11.310;2023-01-30T08:19:40;5.70;77.50
39601;DHT22;25297;44.758;11.310;2023-01-30T08:22:06;5.80;77.50
39601;DHT22;25297;44.758;11.310;2023-01-30T08:24:31;5.80;77.60
39601;DHT22;25297;44.758;11.310;2023-01-30T08:26:57;5.90;77.70
39601;DHT22;25297;44.758;11.310;2023-01-30T08:29:24;6.00;77.70
39601;DHT22;25297;44.758;11.310;2023-01-30T08:31:50;6.00;78.00
39601;DHT22;25297;44.758;11.310;2023-01-30T08:34:15;6.10;77.70
39601;DHT22;25297;44.758;11.310;2023-01-30T08:36:41;6.10;77.90
39601;DHT22;25297;44.758;11.310;2023-01-30T08:39:11;6.20;78.10
39601;DHT22;25297;44.758;11.310;2023-01-30T08:41:36;6.30;78.40
39601;DHT22;25297;44.758;11.310;2023-01-30T08:44:02;6.30;78.70
39601;DHT22;25297;44.758;11.310;2023-01-30T08:46:27;6.40;78.70
39601;DHT22;25297;44.758;11.310;2023-01-30T08:48:53;6.50;78.60
39601;DHT22;25297;44.758;11.310;2023-01-30T08:51:19;6.50;78.10
39601;DHT22;25297;44.758;11.310;2023-01-30T08:53:44;6.60;77.80
39601;DHT22;25297;44.758;11.310;2023-01-30T08:56:10;6.70;77.80
39601;DHT22;25297;44.758;11.310;2023-01-30T08:58:35;6.70;77.60
39601;DHT22;25297;44.758;11.310;2023-01-30T09:01:05;6.80;77.70
39601;DHT22;25297;44.758;11.310;2023-01-30T09:03:31;6.90;77.90
39601;DHT22;25297;44.758;11.310;2023-01-30T09:05:57;6.90;77.50
39601;DHT22;25297;44.758;11.310;2023-01-30T09:08:22;7.00;77.40
39601;DHT22;25297;44.758;11.310;2023-01-30T09:10:48;7.10;77.10
39601;DHT22;25297;44.758;11.310;2023-01-30T09:13:14;7.10;77.30
39601;DHT22;25297;44.758;11.310;2023-01-30T09:15:43;7.20;77.90
39601;DHT22;25297;44.758;11.310;2023-01-30T09:18:09;7.20;77.40
39601;DHT22;25297;44.758;11.310;2023-01-30T09:20:35;7.30;77.50
39601;DHT22;25297;44.758;11.310;2023-01-30T09:23:01;7.40;77.50
39601;DHT22;25297;44.758;11.310;2023-01-30T09:25:26;7.50;77.40
39601;DHT22;25297;44.758;11.310;2023-01-30T09:27:52;7.60;77.20
39601;DHT22;25297;44.758;11.310;2023-01-30T09:30:18;7.60;77.30
39601;DHT22;25297;44.758;11.310;2023-01-30T09:32:44;7.60;77.50
39601;DHT22;25297;44.758;11.310;2023-01-30T09:35:10;7.70;77.30
39601;DHT22;25297;44.758;11.310;2023-01-30T09:37:35;7.80;77.40
39601;DHT22;25297;44.758;11.310;2023-01-30T09:40:01;7.90;77.30
39601;DHT22;25297;44.758;11.310;2023-01-30T09:53:28;8.20;76.40
39601;DHT22;25297;44.758;11.310;2023-01-30T09:55:57;8.30;76.60
39601;DHT22;25297;44.758;11.310;2023-01-30T09:58:24;8.40;76.50
39601;DHT22;25297;44.758;11.310;2023-01-30T10:00:55;8.50;76.70
39601;DHT22;25297;44.758;11.310;2023-01-30T10:03:37;8.50;76.60
39601;DHT22;25297;44.758;11.310;2023-01-30T10:06:06;8.50;76.50
39601;DHT22;25297;44.758;11.310;2023-01-30T10:12:04;8.60;76.30
39601;DHT22;25297;44.758;11.310;2023-01-30T10:14:45;8.60;76.40
39601;DHT22;25297;44.758;11.310;2023-01-30T10:25:52;8.60;76.10
39601;DHT22;25297;44.758;11.310;2023-01-30T10:30:49;8.70;76.00
39601;DHT22;25297;44.758;11.310;2023-01-30T10:33:27;8.80;75.60
39601;DHT22;25297;44.758;11.310;2023-01-30T10:36:09;8.80;75.50
39601;DHT22;25297;44.758;11.310;2023-01-30T10:38:43;8.80;75.10
39601;DHT22;25297;44.758;11.310;2023-01-30T10:41:26;8.80;75.50
39601;DHT22;25297;44.758;11.310;2023-01-30T10:44:02;8.80;75.20
39601;DHT22;25297;44.758;11.310;2023-01-30T10:57:23;9.00;75.80
39601;DHT22;25297;44.758;11.310;2023-01-30T11:00:00;9.00;76.30
39601;DHT22;25297;44.758;11.310;2023-01-30T11:02:39;9.10;75.90
39601;DHT22;25297;44.758;11.310;2023-01-30T11:05:17;9.20;75.30
39601;DHT22;25297;44.758;11.310;2023-01-30T11:07:46;9.20;75.30
39601;DHT22;25297;44.758;11.310;2023-01-30T11:10:26;9.30;75.80
39601;DHT22;25297;44.758;11.310;2023-01-30T11:12:55;9.30;75.50
39601;DHT22;25297;44.758;11.310;2023-01-30T11:15:22;9.40;75.60
39601;DHT22;25297;44.758;11.310;2023-01-30T11:17:50;9.40;75.20
39601;DHT22;25297;44.758;11.310;2023-01-30T11:20:27;9.40;75.40
39601;DHT22;25297;44.758;11.310;2023-01-30T11:23:23;9.40;75.20
39601;DHT22;25297;44.758;11.310;2023-01-30T11:25:51;9.50;75.40
39601;DHT22;25297;44.758;11.310;2023-01-30T11:28:16;9.50;75.30
39601;DHT22;25297;44.758;11.310;2023-01-30T11:30:51;9.60;75.10
39601;DHT22;25297;44.758;11.310;2023-01-30T11:33:18;9.60;74.30
39601;DHT22;25297;44.758;11.310;2023-01-30T11:35:56;9.60;74.30
39601;DHT22;25297;44.758;11.310;2023-01-30T11:38:30;9.70;74.90
39601;DHT22;25297;44.758;11.310;2023-01-30T11:43:32;9.70;75.20
39601;DHT22;25297;44.758;11.310;2023-01-30T11:45:58;9.80;75.00
39601;DHT22;25297;44.758;11.310;2023-01-30T11:48:30;9.90;74.80
39601;DHT22;25297;44.758;11.310;2023-01-30T11:51:02;9.90;74.40
39601;DHT22;25297;44.758;11.310;2023-01-30T11:58:56;10.10;74.50
39601;DHT22;25297;44.758;11.310;2023-01-30T12:01:31;10.20;74.70
39601;DHT22;25297;44.758;11.310;2023-01-30T12:03:58;10.30;74.60
39601;DHT22;25297;44.758;11.310;2023-01-30T12:06:31;10.40;74.90
39601;DHT22;25297;44.758;11.310;2023-01-30T12:08:57;10.50;74.70
39601;DHT22;25297;44.758;11.310;2023-01-30T12:11:25;10.60;73.80
39601;DHT22;25297;44.758;11.310;2023-01-30T12:13:55;10.70;73.90
39601;DHT22;25297;44.758;11.310;2023-01-30T12:16:35;10.80;74.20
39601;DHT22;25297;44.758;11.310;2023-01-30T12:19:25;10.90;73.00
39601;DHT22;25297;44.758;11.310;2023-01-30T12:24:51;11.10;72.50
39601;DHT22;25297;44.758;11.310;2023-01-30T12:32:53;11.40;71.70
39601;DHT22;25297;44.758;11.310;2023-01-30T12:35:23;11.50;71.70
39601;DHT22;25297;44.758;11.310;2023-01-30T12:43:38;12.00;70.40
39601;DHT22;25297;44.758;11.310;2023-01-30T12:46:44;12.10;69.60
39601;DHT22;25297;44.758;11.310;2023-01-30T12:57:45;12.70;67.10
39601;DHT22;25297;44.758;11.310;2023-01-30T13:05:40;13.10;65.70
39601;DHT22;25297;44.758;11.310;2023-01-30T13:10:52;13.30;65.90
39601;DHT22;25297;44.758;11.310;2023-01-30T13:13:33;13.40;66.60
39601;DHT22;25297;44.758;11.310;2023-01-30T13:19:06;13.50;65.70
39601;DHT22;25297;44.758;11.310;2023-01-30T13:21:51;13.50;64.30
39601;DHT22;25297;44.758;11.310;2023-01-30T13:24:26;13.60;64.40
39601;DHT22;25297;44.758;11.310;2023-01-30T13:26:59;13.60;64.40
39601;DHT22;25297;44.758;11.310;2023-01-30T13:29:35;13.60;64.00
39601;DHT22;25297;44.758;11.310;2023-01-30T13:32:04;13.60;63.80
39601;DHT22;25297;44.758;11.310;2023-01-30T13:34:40;13.60;63.90
39601;DHT22;25297;44.758;11.310;2023-01-30T13:37:10;13.60;64.10
39601;DHT22;25297;44.758;11.310;2023-01-30T13:40:10;13.60;64.20
39601;DHT22;25297;44.758;11.310;2023-01-30T13:42:40;13.70;64.60
39601;DHT22;25297;44.758;11.310;2023-01-30T13:45:17;13.70;64.00
39601;DHT22;25297;44.758;11.310;2023-01-30T13:58:51;13.50;64.00
39601;DHT22;25297;44.758;11.310;2023-01-30T14:01:19;13.50;64.30
39601;DHT22;25297;44.758;11.310;2023-01-30T14:03:46;13.40;64.20
39601;DHT22;25297;44.758;11.310;2023-01-30T14:06:23;13.40;64.30
39601;DHT22;25297;44.758;11.310;2023-01-30T14:08:54;13.40;63.80
39601;DHT22;25297;44.758;11.310;2023-01-30T14:11:41;13.40;64.40
39601;DHT22;25297;44.758;11.310;2023-01-30T14:16:48;13.30;64.50
39601;DHT22;25297;44.758;11.310;2023-01-30T14:22:03;13.20;64.20
39601;DHT22;25297;44.758;11.310;2023-01-30T14:24:29;13.10;64.10
39601;DHT22;25297;44.758;11.310;2023-01-30T14:27:00;13.10;64.30
39601;DHT22;25297;44.758;11.310;2023-01-30T14:39:52;12.90;65.10
39601;DHT22;25297;44.758;11.310;2023-01-30T14:42:28;12.90;64.90
39601;DHT22;25297;44.758;11.310;2023-01-30T14:47:27;12.90;65.10
39601;DHT22;25297;44.758;11.310;2023-01-30T14:49:53;12.80;64.80
39601;DHT22;25297;44.758;11.310;2023-01-30T14:52:29;12.80;64.70
39601;DHT22;25297;44.758;11.310;2023-01-30T14:54:56;12.80;64.30
39601;DHT22;25297;44.758;11.310;2023-01-30T14:57:24;12.80;64.80
39601;DHT22;25297;44.758;11.310;2023-01-30T15:00:18;12.80;65.10
39601;DHT22;25297;44.758;11.310;2023-01-30T15:02:54;12.80;64.50
39601;DHT22;25297;44.758;11.310;2023-01-30T15:05:31;12.70;64.60
39601;DHT22;25297;44.758;11.310;2023-01-30T15:08:22;12.70;64.90
39601;DHT22;25297;44.758;11.310;2023-01-30T15:11:07;12.70;64.70
39601;DHT22;25297;44.758;11.310;2023-01-30T15:27:55;12.60;65.00
39601;DHT22;25297;44.758;11.310;2023-01-30T15:31:36;12.60;65.20
39601;DHT22;25297;44.758;11.310;2023-01-30T15:33:31;12.50;65.30
39601;DHT22;25297;44.758;11.310;2023-01-30T15:35:57;12.50;65.40
39601;DHT22;25297;44.758;11.310;2023-01-30T15:38:29;12.50;65.40
39601;DHT22;25297;44.758;11.310;2023-01-30T15:40:59;12.50;65.80
39601;DHT22;25297;44.758;11.310;2023-01-30T15:43:57;12.50;66.40
39601;DHT22;25297;44.758;11.310;2023-01-30T15:50:07;12.40;66.30
39601;DHT22;25297;44.758;11.310;2023-01-30T15:52:47;12.40;66.80
39601;DHT22;25297;44.758;11.310;2023-01-30T15:55:25;12.30;66.80
39601;DHT22;25297;44.758;11.310;2023-01-30T15:57:55;12.30;67.60
39601;DHT22;25297;44.758;11.310;2023-01-30T16:00:36;12.20;68.30
39601;DHT22;25297;44.758;11.310;2023-01-30T16:03:09;12.20;69.00
39601;DHT22;25297;44.758;11.310;2023-01-30T16:05:35;12.10;69.30
39601;DHT22;25297;44.758;11.310;2023-01-30T16:08:17;12.10;68.60
39601;DHT22;25297;44.758;11.310;2023-01-30T16:10:44;12.00;69.00
39601;DHT22;25297;44.758;11.310;2023-01-30T16:13:15;12.00;69.30
39601;DHT22;25297;44.758;11.310;2023-01-30T16:20:49;11.70;69.60
39601;DHT22;25297;44.758;11.310;2023-01-30T16:23:24;11.70;69.80
39601;DHT22;25297;44.758;11.310;2023-01-30T16:25:52;11.60;69.50
39601;DHT22;25297;44.758;11.310;2023-01-30T16:28:23;11.50;69.60
39601;DHT22;25297;44.758;11.310;2023-01-30T16:31:00;11.40;70.20
39601;DHT22;25297;44.758;11.310;2023-01-30T16:33:26;11.40;69.70
39601;DHT22;25297;44.758;11.310;2023-01-30T16:35:57;11.40;69.90
39601;DHT22;25297;44.758;11.310;2023-01-30T16:38:43;11.30;70.00
39601;DHT22;25297;44.758;11.310;2023-01-30T16:44:18;11.20;69.30
39601;DHT22;25297;44.758;11.310;2023-01-30T16:49:20;11.00;69.60
39601;DHT22;25297;44.758;11.310;2023-01-30T16:51:47;11.00;70.00
39601;DHT22;25297;44.758;11.310;2023-01-30T16:54:20;10.90;69.80
39601;DHT22;25297;44.758;11.310;2023-01-30T16:56:51;10.80;70.00
39601;DHT22;25297;44.758;11.310;2023-01-30T16:59:33;10.80;70.20
39601;DHT22;25297;44.758;11.310;2023-01-30T17:02:03;10.70;70.60
39601;DHT22;25297;44.758;11.310;2023-01-30T17:04:31;10.60;70.80
39601;DHT22;25297;44.758;11.310;2023-01-30T17:07:02;10.60;70.80
39601;DHT22;25297;44.758;11.310;2023-01-30T17:09:33;10.50;70.90
39601;DHT22;25297;44.758;11.310;2023-01-30T17:11:59;10.30;71.00
39601;DHT22;25297;44.758;11.310;2023-01-30T17:14:26;10.30;71.30
39601;DHT22;25297;44.758;11.310;2023-01-30T17:17:02;10.30;71.40
39601;DHT22;25297;44.758;11.310;2023-01-30T17:19:29;10.20;71.50
39601;DHT22;25297;44.758;11.310;2023-01-30T17:21:55;10.20;71.60
39601;DHT22;25297;44.758;11.310;2023-01-30T17:24:23;10.20;71.60
39601;DHT22;25297;44.758;11.310;2023-01-30T17:26:52;10.20;71.80
39601;DHT22;25297;44.758;11.310;2023-01-30T17:29:19;10.20;72.10
39601;DHT22;25297;44.758;11.310;2023-01-30T17:31:50;10.10;71.60
39601;DHT22;25297;44.758;11.310;2023-01-30T17:34:15;10.10;71.50
39601;DHT22;25297;44.758;11.310;2023-01-30T17:36:45;10.10;71.80
39601;DHT22;25297;44.758;11.310;2023-01-30T17:39:16;10.10;71.70
39601;DHT22;25297;44.758;11.310;2023-01-30T17:41:43;10.10;71.90
39601;DHT22;25297;44.758;11.310;2023-01-30T17:44:10;10.10;71.70
39601;DHT22;25297;44.758;11.310;2023-01-30T17:46:44;10.10;71.80
39601;DHT22;25297;44.758;11.310;2023-01-30T17:49:15;10.10;71.80
39601;DHT22;25297;44.758;11.310;2023-01-30T17:51:41;10.00;71.40
39601;DHT22;25297;44.758;11.310;2023-01-30T17:54:08;10.00;71.60
39601;DHT22;25297;44.758;11.310;2023-01-30T17:56:35;9.90;71.60
39601;DHT22;25297;44.758;11.310;2023-01-30T17:59:07;9.90;71.90
39601;DHT22;25297;44.758;11.310;2023-01-30T18:01:35;9.80;72.70
39601;DHT22;25297;44.758;11.310;2023-01-30T18:04:01;9.80;72.30
39601;DHT22;25297;44.758;11.310;2023-01-30T18:06:27;9.80;72.10
39601;DHT22;25297;44.758;11.310;2023-01-30T18:08:54;9.70;72.10
39601;DHT22;25297;44.758;11.310;2023-01-30T18:11:20;9.70;72.00
39601;DHT22;25297;44.758;11.310;2023-01-30T18:13:46;9.70;72.10
39601;DHT22;25297;44.758;11.310;2023-01-30T18:16:30;9.70;72.10
39601;DHT22;25297;44.758;11.310;2023-01-30T18:18:57;9.70;72.20
39601;DHT22;25297;44.758;11.310;2023-01-30T18:21:23;9.60;72.30
39601;DHT22;25297;44.758;11.310;2023-01-30T18:23:49;9.60;72.10
39601;DHT22;25297;44.758;11.310;2023-01-30T18:26:16;9.60;72.10
39601;DHT22;25297;44.758;11.310;2023-01-30T18:28:43;9.50;72.10
39601;DHT22;25297;44.758;11.310;2023-01-30T18:31:10;9.50;72.30
39601;DHT22;25297;44.758;11.310;2023-01-30T18:33:37;9.40;72.20
39601;DHT22;25297;44.758;11.310;2023-01-30T18:36:04;9.40;72.40